Airfield :
LOGIN :

Register | Disclaimer

   EN    FR    IT 

 










Legend :    VFR   Marginal VFR   IFR   Intensive IFR   Very Intensive IFR
Visi :
Ceiling :
>= 8 km
>= 3000ft
5 to 8 km
1000 to 3000 ft
1500m to 5 km
500 to 1000 ft
800 to 1500m
200 to 500 ft
< 800m
< 200 ft
Symbols :   Thunderstorms  Fog  Heavy snow  Heavy precipitations  Wind > 20 kt
SIGMETs :     Misc.  Thunderstorms  Icing  Turbulence  Mountain Waves  Volcanic Ashes






- Airport Elevation : 36 ft
- IATA code : LTQ


LFAT - Le Touquet

CURRENT METAR :
  • 090930Z AUTO 33025KT 9999 FEW024 BKN032 OVC039 09/05 Q1004 TEMPO 32025G45KT 4000 SHRA SCT011 BKN025CB

EXPIRED METARs :
  • 090900Z AUTO 33025KT 9999 BKN025 BKN031 OVC040 09/06 Q1002 TEMPO 32025G45KT 4000 SHRA SCT011 BKN025CB
  • 090830Z AUTO 33023KT 9999 BKN024 BKN034 BKN045 09/06 Q1001 TEMPO 32025G45KT 4000 SHRA SCT011 BKN025CB
  • 090800Z AUTO 32025KT 9999 -RA BKN020 OVC033 09/06 Q1000 TEMPO 29025G45KT 3000 SHRA SCT011 BKN025CB
  • 090730Z AUTO 31021KT 9999 -RA BKN019 BKN025 BKN033 09/06 Q0998 TEMPO 29025G45KT 3000 SHRA SCT011 BKN025CB
  • 090700Z AUTO 31018G29KT 9999 -RA BKN020/// BKN027/// OVC036/// ///TCU 09/07 Q0997 TEMPO 29025G45KT 3000 SHRA SCT011 BKN025CB

TAF TAF LFAT
Valid from the 09 at 09:00 until the 09 at 18:00 UTC


090800Z 0909/0918 32020G35KT 9999 BKN025
TEMPO 0909/0912 32025G45KT 4000 SHRA SCT011 BKN025CB
ATIS : +33 3 21 06 62 84



MET'MAP, your aeronautical weather chart ! - Copyright ORBIFLY December 2007 - Disclaimer

ORBIFLY MET'MAP TEAM :

Programming & Development : Alexandra Zaïnal
Concept & original design : Baudouin d'Aumeries
Assistance for programming : Marc-Olivier Méhu
Technical & hardware support : Manuel Goepfert

Contact : metmap@orbifly.com




SOURCES & CREDITS :

   NOAA